createdAt,value
2023-07-04T00:01:53.822Z,18.60
2023-07-04T00:04:25.912Z,18.60
2023-07-04T00:06:59.015Z,18.70
2023-07-04T00:09:29.540Z,18.60
2023-07-04T00:12:00.779Z,18.50
2023-07-04T00:14:31.267Z,18.60
2023-07-04T00:17:01.878Z,18.50
2023-07-04T00:19:32.732Z,18.60
2023-07-04T00:22:06.344Z,18.50
2023-07-04T00:24:37.017Z,18.50
2023-07-04T00:27:08.344Z,18.40
2023-07-04T00:29:39.009Z,18.40
2023-07-04T00:32:10.947Z,18.40
2023-07-04T00:34:45.671Z,18.40
2023-07-04T00:37:23.302Z,18.40
2023-07-04T00:39:55.333Z,18.30
2023-07-04T00:42:27.116Z,18.40
2023-07-04T00:44:59.604Z,18.30
2023-07-04T00:47:45.079Z,18.30
2023-07-04T00:50:15.983Z,18.30
2023-07-04T00:52:49.738Z,18.20
2023-07-04T00:55:20.272Z,18.20
2023-07-04T00:57:50.994Z,18.20
2023-07-04T01:00:24.718Z,18.20
2023-07-04T01:03:02.959Z,18.10
2023-07-04T01:05:47.750Z,18.20
2023-07-04T01:08:26.224Z,18.10
2023-07-04T01:10:59.972Z,18.00
2023-07-04T01:13:38.061Z,18.00
2023-07-04T01:16:10.992Z,17.90
2023-07-04T01:18:43.085Z,17.90
2023-07-04T01:21:16.168Z,17.90
2023-07-04T01:23:59.951Z,18.00
2023-07-04T01:26:35.959Z,18.00
2023-07-04T01:29:08.795Z,18.00
2023-07-04T01:31:42.350Z,17.90
2023-07-04T01:34:14.009Z,17.90
2023-07-04T01:36:46.194Z,17.90
2023-07-04T01:39:18.496Z,17.90
2023-07-04T01:41:51.659Z,17.90
2023-07-04T01:44:25.691Z,17.80
2023-07-04T01:46:56.275Z,17.90
2023-07-04T01:49:26.906Z,17.90
2023-07-04T01:51:57.890Z,17.90
2023-07-04T01:54:28.831Z,17.80
2023-07-04T01:57:02.100Z,17.90
2023-07-04T01:59:32.699Z,17.90
2023-07-04T02:02:03.517Z,17.90
2023-07-04T02:04:34.178Z,17.90
2023-07-04T02:07:04.613Z,17.90
2023-07-04T02:09:35.145Z,17.90
2023-07-04T02:12:10.531Z,17.90
2023-07-04T02:14:44.253Z,17.70
2023-07-04T02:17:17.549Z,17.70
2023-07-04T02:19:48.458Z,17.80
2023-07-04T02:22:19.059Z,17.80
2023-07-04T02:24:49.906Z,17.80
2023-07-04T02:27:23.831Z,17.80
2023-07-04T02:29:54.672Z,17.80
2023-07-04T02:32:25.279Z,17.80
2023-07-04T02:34:56.910Z,17.70
2023-07-04T02:37:27.530Z,17.70
2023-07-04T02:39:58.969Z,17.70
2023-07-04T02:42:33.845Z,17.70
2023-07-04T02:45:05.388Z,17.60
2023-07-04T02:47:36.032Z,17.70
2023-07-04T02:50:11.068Z,17.60
2023-07-04T02:52:43.101Z,17.70
2023-07-04T02:55:13.870Z,17.60
2023-07-04T02:57:47.150Z,17.60
2023-07-04T03:00:18.170Z,17.60
2023-07-04T03:02:51.570Z,17.50
2023-07-04T03:05:22.296Z,17.60
2023-07-04T03:07:53.067Z,17.50
2023-07-04T03:10:24.255Z,17.50
2023-07-04T03:12:58.873Z,17.50
2023-07-04T03:15:33.171Z,17.50
2023-07-04T03:18:06.219Z,17.50
2023-07-04T03:20:39.804Z,17.50
2023-07-04T03:23:10.401Z,17.40
2023-07-04T03:25:42.378Z,17.50
2023-07-04T03:28:15.931Z,17.40
2023-07-04T03:30:47.123Z,17.40
2023-07-04T03:33:20.705Z,17.40
2023-07-04T03:35:58.650Z,17.40
2023-07-04T03:38:32.113Z,17.40
2023-07-04T03:41:03.075Z,17.30
2023-07-04T03:43:36.218Z,17.30
2023-07-04T03:46:06.868Z,17.20
2023-07-04T03:48:37.531Z,17.20
2023-07-04T03:51:08.207Z,17.20
2023-07-04T03:53:39.027Z,17.10
2023-07-04T03:56:10.706Z,17.10
2023-07-04T03:58:43.818Z,17.10
2023-07-04T04:01:14.580Z,17.10
2023-07-04T04:03:45.181Z,17.10
2023-07-04T04:06:16.036Z,17.20
2023-07-04T04:08:46.484Z,17.20
2023-07-04T04:11:17.032Z,17.10
2023-07-04T04:13:50.485Z,17.10
2023-07-04T04:16:22.659Z,17.10
2023-07-04T04:18:55.191Z,17.10
2023-07-04T04:21:25.977Z,17.10
2023-07-04T04:23:56.545Z,17.10
2023-07-04T04:26:27.722Z,17.10
2023-07-04T04:29:00.959Z,17.10
2023-07-04T04:31:31.562Z,17.10
2023-07-04T04:34:02.163Z,17.00
2023-07-04T04:36:32.732Z,17.10
2023-07-04T04:39:03.265Z,17.00
2023-07-04T04:41:33.803Z,17.10
2023-07-04T04:44:06.986Z,17.00
2023-07-04T04:46:37.783Z,17.00
2023-07-04T04:49:09.534Z,17.10
2023-07-04T04:51:42.019Z,17.00
2023-07-04T04:54:12.490Z,17.00
2023-07-04T04:56:45.440Z,17.00
2023-07-04T04:59:18.660Z,16.90
2023-07-04T05:01:49.343Z,17.00
2023-07-04T05:04:19.844Z,17.00
2023-07-04T05:06:50.363Z,17.00
2023-07-04T05:09:23.218Z,17.00
2023-07-04T05:11:53.845Z,17.10
2023-07-04T05:14:27.091Z,17.00
2023-07-04T05:16:57.578Z,17.00
2023-07-04T05:19:28.161Z,17.10
2023-07-04T05:21:58.709Z,17.10
2023-07-04T05:24:29.158Z,17.10
2023-07-04T05:26:59.644Z,17.10
2023-07-04T05:29:32.726Z,17.10
2023-07-04T05:32:03.343Z,17.10
2023-07-04T05:34:33.967Z,17.20
2023-07-04T05:37:06.266Z,17.10
2023-07-04T05:39:37.494Z,17.10
2023-07-04T05:42:08.795Z,17.10
2023-07-04T05:44:41.996Z,17.20
2023-07-04T05:47:12.956Z,17.20
2023-07-04T05:49:43.548Z,17.20
2023-07-04T05:52:14.282Z,17.30
2023-07-04T05:54:44.780Z,17.30
2023-07-04T05:57:15.285Z,17.30
2023-07-04T05:59:48.397Z,17.30
2023-07-04T06:02:18.960Z,17.30
2023-07-04T06:04:49.661Z,17.40
2023-07-04T06:07:21.231Z,17.40
2023-07-04T06:09:51.775Z,17.50
2023-07-04T06:12:22.327Z,17.40
2023-07-04T06:14:55.512Z,17.30
2023-07-04T06:17:26.249Z,17.40
2023-07-04T06:19:56.917Z,17.40
2023-07-04T06:22:27.757Z,17.40
2023-07-04T06:24:58.285Z,17.40
2023-07-04T06:27:30.829Z,17.50
2023-07-04T06:30:03.923Z,17.50
2023-07-04T06:32:34.562Z,17.60
2023-07-04T06:35:05.122Z,17.60
2023-07-04T06:37:35.717Z,17.70
2023-07-04T06:40:06.258Z,17.70
2023-07-04T06:42:37.324Z,17.70
2023-07-04T06:45:11.788Z,17.70
2023-07-04T06:47:42.344Z,17.80
2023-07-04T06:50:15.396Z,17.80
2023-07-04T06:52:46.499Z,17.90
2023-07-04T06:55:17.134Z,17.90
2023-07-04T06:57:48.218Z,17.90
2023-07-04T07:00:22.495Z,17.90
2023-07-04T07:02:54.291Z,18.00
2023-07-04T07:05:25.869Z,18.00
2023-07-04T07:07:56.590Z,18.10
2023-07-04T07:10:27.239Z,18.10
2023-07-04T07:12:57.809Z,18.10
2023-07-04T07:15:30.867Z,18.20
2023-07-04T07:18:01.692Z,18.20
2023-07-04T07:20:32.338Z,18.30
2023-07-04T07:23:02.898Z,18.30
2023-07-04T07:25:33.355Z,18.30
2023-07-04T07:28:03.883Z,18.30
2023-07-04T07:30:37.029Z,18.20
2023-07-04T07:33:08.162Z,18.30
2023-07-04T07:35:38.775Z,18.30
2023-07-04T07:38:09.278Z,18.40
2023-07-04T07:40:39.760Z,18.50
2023-07-04T07:43:10.204Z,18.60
2023-07-04T07:45:43.622Z,18.60
2023-07-04T07:48:14.169Z,18.60
2023-07-04T07:50:45.861Z,18.60
2023-07-04T07:53:17.841Z,18.70
2023-07-04T07:55:48.442Z,18.80
2023-07-04T07:58:18.911Z,18.80
2023-07-04T08:00:52.176Z,18.70
2023-07-04T08:03:23.128Z,18.80
2023-07-04T08:05:53.780Z,18.90
2023-07-04T08:08:24.336Z,19.00
2023-07-04T08:10:55.067Z,18.90
2023-07-04T08:13:25.956Z,18.80
2023-07-04T08:16:00.347Z,19.00
2023-07-04T08:18:31.163Z,19.00
2023-07-04T08:21:07.341Z,19.10
2023-07-04T08:23:37.923Z,19.20
2023-07-04T08:26:08.436Z,19.20
2023-07-04T08:28:39.193Z,19.20
2023-07-04T08:31:13.227Z,19.20
2023-07-04T08:33:43.849Z,19.30
2023-07-04T08:36:14.530Z,19.30
2023-07-04T08:38:45.739Z,19.50
2023-07-04T08:41:28.170Z,19.50
2023-07-04T08:44:04.656Z,19.50
2023-07-04T08:46:41.337Z,19.70
2023-07-04T08:49:25.822Z,19.60
2023-07-04T08:52:03.881Z,19.80
2023-07-04T08:54:34.936Z,19.80
2023-07-04T08:57:16.419Z,19.80
2023-07-04T08:59:47.440Z,19.80
2023-07-04T09:02:47.333Z,20.00
2023-07-04T09:05:23.442Z,20.00
2023-07-04T09:08:00.709Z,20.00
2023-07-04T09:10:37.491Z,20.10
2023-07-04T09:13:12.528Z,20.20
2023-07-04T09:15:47.051Z,20.20
2023-07-04T09:18:32.908Z,20.30
2023-07-04T09:21:08.882Z,20.40
2023-07-04T09:23:39.498Z,20.40
2023-07-04T09:26:13.192Z,20.40
2023-07-04T09:28:47.345Z,20.50
2023-07-04T09:31:24.284Z,20.60
2023-07-04T09:33:57.919Z,20.50
2023-07-04T09:36:34.434Z,20.50
2023-07-04T09:39:06.564Z,20.60
2023-07-04T09:41:44.159Z,20.80
2023-07-04T09:44:33.566Z,20.70
2023-07-04T09:47:05.675Z,20.80
2023-07-04T09:49:39.975Z,20.90
2023-07-04T09:52:24.208Z,21.00
2023-07-04T09:55:11.768Z,21.00
2023-07-04T09:57:42.417Z,21.00
2023-07-04T10:00:23.387Z,21.20
2023-07-04T10:02:56.264Z,21.30
2023-07-04T10:05:33.268Z,21.20
2023-07-04T10:08:09.769Z,21.30
2023-07-04T10:10:44.652Z,21.40
2023-07-04T10:13:17.041Z,21.50
2023-07-04T10:15:49.773Z,21.40
2023-07-04T10:18:35.001Z,21.60
2023-07-04T10:21:11.032Z,21.70
2023-07-04T10:23:41.740Z,21.70
2023-07-04T10:26:13.851Z,21.60
2023-07-04T10:28:44.649Z,21.40
2023-07-04T10:31:19.858Z,21.50
2023-07-04T10:33:55.474Z,21.60
2023-07-04T10:36:36.182Z,21.50
2023-07-04T10:39:11.290Z,21.80
2023-07-04T10:41:48.973Z,22.00
2023-07-04T10:44:24.831Z,21.90
2023-07-04T10:47:12.181Z,21.80
2023-07-04T10:49:51.460Z,21.70
2023-07-04T10:52:30.154Z,21.70
2023-07-04T10:55:03.238Z,21.70
2023-07-04T10:57:45.042Z,21.80
2023-07-04T11:00:24.001Z,22.20
2023-07-04T11:02:59.519Z,22.30
2023-07-04T11:05:36.749Z,22.30
2023-07-04T11:08:12.177Z,22.30
2023-07-04T11:10:45.711Z,22.50
2023-07-04T11:13:19.697Z,22.50
2023-07-04T11:15:54.533Z,22.10
2023-07-04T11:18:30.962Z,22.10
2023-07-04T11:21:12.472Z,22.30
2023-07-04T11:23:52.730Z,22.60
2023-07-04T11:26:25.075Z,22.70
2023-07-04T11:29:11.056Z,22.70
2023-07-04T11:32:15.152Z,22.60
2023-07-04T11:34:47.915Z,22.60
2023-07-04T11:37:26.942Z,22.50
2023-07-04T11:40:06.387Z,22.50
2023-07-04T11:42:46.373Z,22.50
2023-07-04T11:45:19.218Z,22.50
2023-07-04T11:47:54.087Z,22.60
2023-07-04T11:50:33.380Z,22.70
2023-07-04T11:53:05.884Z,22.60
2023-07-04T11:55:39.887Z,22.80
2023-07-04T11:58:27.968Z,22.90
2023-07-04T12:01:09.121Z,22.90
2023-07-04T12:04:01.766Z,22.80
2023-07-04T12:07:09.577Z,23.00
2023-07-04T12:09:47.026Z,23.20
2023-07-04T12:12:34.057Z,23.30
2023-07-04T12:15:10.077Z,23.40
2023-07-04T12:17:42.607Z,23.50
2023-07-04T12:20:15.886Z,23.40
2023-07-04T12:22:50.092Z,23.40
2023-07-04T12:25:26.162Z,23.60
2023-07-04T12:28:04.077Z,23.50
2023-07-04T12:33:10.023Z,23.80
2023-07-04T12:35:40.849Z,23.90
2023-07-04T12:38:13.104Z,23.90
2023-07-04T12:40:43.983Z,23.90
2023-07-04T12:51:02.698Z,23.90
2023-07-04T12:53:33.757Z,23.90
2023-07-04T12:56:09.279Z,24.00
2023-07-04T12:58:44.362Z,24.00
2023-07-04T13:01:16.737Z,24.10
2023-07-04T13:03:47.755Z,24.10
2023-07-04T13:06:25.055Z,24.30
2023-07-04T13:08:58.495Z,24.10
2023-07-04T13:11:30.663Z,24.10
2023-07-04T13:14:12.119Z,24.10
2023-07-04T13:16:43.676Z,24.20
2023-07-04T13:19:23.110Z,24.10
2023-07-04T13:21:55.181Z,24.20
2023-07-04T13:27:20.449Z,24.10
2023-07-04T13:35:26.257Z,24.30
2023-07-04T13:39:49.628Z,24.30
2023-07-04T13:40:47.978Z,24.30
2023-07-04T13:45:55.375Z,24.30
2023-07-04T13:48:26.029Z,24.30
2023-07-04T13:50:56.576Z,24.30
2023-07-04T13:53:27.616Z,24.40
2023-07-04T13:55:59.023Z,24.30
2023-07-04T13:58:29.804Z,24.10
2023-07-04T14:06:10.395Z,24.30
2023-07-04T14:08:44.584Z,24.30
2023-07-04T14:11:16.887Z,24.30
2023-07-04T14:13:48.099Z,24.40
2023-07-04T14:16:40.003Z,24.60
2023-07-04T14:21:45.915Z,24.60
2023-07-04T14:24:16.810Z,24.50
2023-07-04T14:26:51.009Z,24.40
2023-07-04T14:29:23.520Z,24.30
2023-07-04T14:31:56.687Z,24.10
2023-07-04T14:34:27.299Z,24.10
2023-07-04T14:36:58.041Z,24.00
2023-07-04T14:39:29.434Z,23.90
2023-07-04T14:44:34.826Z,23.80
2023-07-04T14:47:09.203Z,23.80
2023-07-04T14:49:42.322Z,23.90
2023-07-04T14:52:15.135Z,23.80
2023-07-04T14:54:45.633Z,23.80
2023-07-04T14:57:16.227Z,23.80
2023-07-04T14:59:46.926Z,23.90
2023-07-04T15:02:20.393Z,24.00
2023-07-04T15:04:51.038Z,24.00
2023-07-04T15:07:21.635Z,24.20
2023-07-04T15:09:52.158Z,24.30
2023-07-04T15:12:24.792Z,24.50
2023-07-04T15:14:56.730Z,24.50
2023-07-04T15:17:30.085Z,24.40
2023-07-04T15:20:00.637Z,24.40
2023-07-04T15:22:31.238Z,24.50
2023-07-04T15:25:01.824Z,24.40
2023-07-04T15:27:32.384Z,24.10
2023-07-04T15:30:03.816Z,24.20
2023-07-04T15:32:37.055Z,24.30
2023-07-04T15:35:08.550Z,24.30
2023-07-04T15:37:39.111Z,24.30
2023-07-04T15:40:11.369Z,24.30
2023-07-04T15:42:51.521Z,24.10
2023-07-04T15:45:23.464Z,24.10
2023-07-04T15:47:56.639Z,24.00
2023-07-04T15:50:27.223Z,23.90
2023-07-04T15:52:57.785Z,23.90
2023-07-04T15:55:28.318Z,24.00
2023-07-04T15:57:59.067Z,24.00
2023-07-04T16:00:33.159Z,24.00
2023-07-04T16:03:06.777Z,24.00
2023-07-04T16:05:37.471Z,24.00
2023-07-04T16:08:08.356Z,23.90
2023-07-04T16:10:39.082Z,23.90
2023-07-04T16:13:09.970Z,23.90
2023-07-04T16:15:40.757Z,23.90
2023-07-04T16:18:13.978Z,23.80
2023-07-04T16:20:45.649Z,23.90
2023-07-04T16:23:16.494Z,23.90
2023-07-04T16:25:48.724Z,23.80
2023-07-04T16:28:20.863Z,23.80
2023-07-04T16:30:51.693Z,23.80
2023-07-04T16:33:25.084Z,23.80
2023-07-04T16:35:56.102Z,23.80
2023-07-04T16:38:27.036Z,23.70
2023-07-04T16:40:58.695Z,23.60
2023-07-04T16:43:30.255Z,23.70
2023-07-04T16:46:01.017Z,23.60
2023-07-04T16:48:34.384Z,23.60
2023-07-04T16:51:05.412Z,23.60
2023-07-04T16:53:35.958Z,23.60
2023-07-04T16:56:08.922Z,23.50
2023-07-04T16:58:40.710Z,23.40
2023-07-04T17:01:11.724Z,23.40
2023-07-04T17:03:45.932Z,23.50
2023-07-04T17:06:16.723Z,23.50
2023-07-04T17:08:47.316Z,23.50
2023-07-04T17:11:17.858Z,23.40
2023-07-04T17:13:48.389Z,23.40
2023-07-04T17:16:19.031Z,23.30
2023-07-04T17:18:52.160Z,23.30
2023-07-04T17:21:22.733Z,23.30
2023-07-04T17:23:55.162Z,23.30
2023-07-04T17:26:26.257Z,23.30
2023-07-04T17:28:56.890Z,23.20
2023-07-04T17:31:28.867Z,23.20
2023-07-04T17:34:03.755Z,23.20
2023-07-04T17:36:36.022Z,23.20
2023-07-04T17:39:06.850Z,23.10
2023-07-04T17:41:38.588Z,23.20
2023-07-04T17:44:09.209Z,23.20
2023-07-04T17:46:39.803Z,23.10
2023-07-04T17:49:12.855Z,23.10
2023-07-04T17:51:43.413Z,23.10
2023-07-04T17:54:14.004Z,23.10
2023-07-04T17:56:44.893Z,23.10
2023-07-04T17:59:15.738Z,23.10
2023-07-04T18:01:46.439Z,23.00
2023-07-04T18:04:20.430Z,23.00
2023-07-04T18:06:51.984Z,23.00
2023-07-04T18:09:25.223Z,23.00
2023-07-04T18:11:55.852Z,23.00
2023-07-04T18:14:29.054Z,23.00
2023-07-04T18:16:59.709Z,23.00
2023-07-04T18:19:32.825Z,23.00
2023-07-04T18:22:03.425Z,23.00
2023-07-04T18:24:33.915Z,22.90
2023-07-04T18:27:04.469Z,23.00
2023-07-04T18:29:35.074Z,22.90
2023-07-04T18:32:05.590Z,22.90
2023-07-04T18:34:39.171Z,22.90
2023-07-04T18:37:09.966Z,22.80
2023-07-04T18:39:40.578Z,22.80
2023-07-04T18:42:11.483Z,22.80
2023-07-04T18:44:42.219Z,22.80
2023-07-04T18:47:13.455Z,22.80
2023-07-04T18:49:46.864Z,22.80
2023-07-04T18:52:17.374Z,22.80
2023-07-04T18:54:47.909Z,22.70
2023-07-04T18:57:18.418Z,22.70
2023-07-04T18:59:49.867Z,22.80
2023-07-04T19:02:20.522Z,22.70
2023-07-04T19:04:53.689Z,22.70
2023-07-04T19:07:24.680Z,22.70
2023-07-04T19:09:55.268Z,22.60
2023-07-04T19:12:26.041Z,22.60
2023-07-04T19:14:57.301Z,22.60
2023-07-04T19:17:28.494Z,22.60
2023-07-04T19:20:01.953Z,22.60
2023-07-04T19:22:32.476Z,22.50
2023-07-04T19:25:04.636Z,22.40
2023-07-04T19:27:35.545Z,22.40
2023-07-04T19:30:06.512Z,22.30
2023-07-04T19:32:37.113Z,22.30
2023-07-04T19:35:11.449Z,22.20
2023-07-04T19:37:44.469Z,22.20
2023-07-04T19:40:16.058Z,22.20
2023-07-04T19:42:46.603Z,22.20
2023-07-04T19:45:17.177Z,22.20
2023-07-04T19:47:47.755Z,22.20
2023-07-04T19:50:21.240Z,22.10
2023-07-04T19:52:51.935Z,22.10
2023-07-04T19:55:22.996Z,22.00
2023-07-04T19:57:53.738Z,22.00
2023-07-04T20:00:24.573Z,22.00
2023-07-04T20:02:56.565Z,22.00
2023-07-04T20:05:29.832Z,22.00
2023-07-04T20:08:01.501Z,22.00
2023-07-04T20:10:32.852Z,21.90
2023-07-04T20:13:06.494Z,21.90
2023-07-04T20:15:37.133Z,21.90
2023-07-04T20:18:07.745Z,21.80
2023-07-04T20:20:41.174Z,21.80
2023-07-04T20:23:11.921Z,21.70
2023-07-04T20:25:42.505Z,21.70
2023-07-04T20:28:14.589Z,21.60
2023-07-04T20:30:47.680Z,21.60
2023-07-04T20:33:18.227Z,21.60
2023-07-04T20:35:51.732Z,21.60
2023-07-04T20:38:23.424Z,21.70
2023-07-04T20:40:56.704Z,21.70
2023-07-04T20:43:27.552Z,21.70
2023-07-04T20:45:58.555Z,21.70
2023-07-04T20:48:32.886Z,21.50
2023-07-04T20:51:09.530Z,21.40
2023-07-04T20:53:42.712Z,21.60
2023-07-04T20:56:14.265Z,21.60
2023-07-04T20:58:45.148Z,21.50
2023-07-04T21:01:15.846Z,21.50
2023-07-04T21:03:46.630Z,21.50
2023-07-04T21:06:22.289Z,21.40
2023-07-04T21:08:52.899Z,21.50
2023-07-04T21:11:23.526Z,21.50
2023-07-04T21:13:54.167Z,21.40
2023-07-04T21:16:24.724Z,21.50
2023-07-04T21:18:55.292Z,21.50
2023-07-04T21:21:28.838Z,21.50
2023-07-04T21:23:59.781Z,21.50
2023-07-04T21:26:30.546Z,21.40
2023-07-04T21:29:01.206Z,21.40
2023-07-04T21:31:31.818Z,21.40
2023-07-04T21:34:03.326Z,21.40
2023-07-04T21:36:37.012Z,21.40
2023-07-04T21:39:07.853Z,21.40
2023-07-04T21:41:38.460Z,21.40
2023-07-04T21:44:09.596Z,21.40
2023-07-04T21:46:40.537Z,21.30
2023-07-04T21:49:11.157Z,21.40
2023-07-04T21:51:44.309Z,21.30
2023-07-04T21:54:14.928Z,21.30
2023-07-04T21:56:45.428Z,21.10
2023-07-04T21:59:15.987Z,21.10
2023-07-04T22:01:46.575Z,21.10
2023-07-04T22:04:18.546Z,21.00
2023-07-04T22:06:52.235Z,21.00
2023-07-04T22:09:23.002Z,21.00
2023-07-04T22:11:53.659Z,20.90
2023-07-04T22:14:37.162Z,20.90
2023-07-04T22:17:09.151Z,20.80
2023-07-04T22:19:39.787Z,20.90
2023-07-04T22:22:13.698Z,20.70
2023-07-04T22:24:44.241Z,20.70
2023-07-04T22:27:14.662Z,20.60
2023-07-04T22:29:45.370Z,20.50
2023-07-04T22:32:16.297Z,20.50
2023-07-04T22:34:46.782Z,20.50
2023-07-04T22:37:19.826Z,20.50
2023-07-04T22:39:52.022Z,20.50
2023-07-04T22:42:23.045Z,20.40
2023-07-04T22:44:53.811Z,20.30
2023-07-04T22:47:24.362Z,20.20
2023-07-04T22:49:54.863Z,20.20
2023-07-04T22:52:27.969Z,20.10
2023-07-04T22:54:58.522Z,20.00
2023-07-04T22:57:29.031Z,20.10
2023-07-04T22:59:59.685Z,20.10
2023-07-04T23:02:30.691Z,20.00
2023-07-04T23:05:01.364Z,20.10
2023-07-04T23:07:39.788Z,20.00
2023-07-04T23:10:11.638Z,20.00
2023-07-04T23:12:42.207Z,20.10
2023-07-04T23:15:13.753Z,20.00
2023-07-04T23:17:45.586Z,19.90
2023-07-04T23:20:16.480Z,19.90
2023-07-04T23:22:49.577Z,19.90
2023-07-04T23:25:20.230Z,19.90
2023-07-04T23:27:51.471Z,19.90
2023-07-04T23:30:22.206Z,19.80
2023-07-04T23:32:52.712Z,19.80
2023-07-04T23:35:23.247Z,19.80
2023-07-04T23:37:56.344Z,19.80
2023-07-04T23:40:27.170Z,19.70
2023-07-04T23:42:57.679Z,19.80
2023-07-04T23:45:28.178Z,19.80
2023-07-04T23:47:58.746Z,19.60
2023-07-04T23:50:31.529Z,19.60
2023-07-04T23:53:04.607Z,19.50
2023-07-04T23:55:35.612Z,19.50
2023-07-04T23:58:06.196Z,19.50
